createdAt,value
2023-03-31T00:01:05.204Z,12.38
2023-03-31T00:03:34.444Z,12.02
2023-03-31T00:06:02.769Z,12.15
2023-03-31T00:08:35.979Z,15.13
2023-03-31T00:11:08.366Z,27.17
2023-03-31T00:13:37.037Z,20.50
2023-03-31T00:16:08.481Z,18.45
2023-03-31T00:18:37.233Z,15.82
2023-03-31T00:21:30.207Z,15.07
2023-03-31T00:24:03.448Z,13.20
2023-03-31T00:26:32.503Z,12.63
2023-03-31T00:29:00.731Z,20.63
2023-03-31T00:31:29.302Z,12.65
2023-03-31T00:33:57.626Z,14.97
2023-03-31T00:36:30.533Z,16.25
2023-03-31T00:39:00.987Z,16.35
2023-03-31T00:41:30.042Z,13.48
2023-03-31T00:44:24.985Z,13.13
2023-03-31T00:47:08.184Z,15.27
2023-03-31T00:49:45.628Z,15.05
2023-03-31T00:52:18.213Z,16.30
2023-03-31T00:54:48.098Z,13.68
2023-03-31T00:57:16.848Z,16.25
2023-03-31T00:59:50.608Z,25.77
2023-03-31T01:02:28.629Z,18.30
2023-03-31T01:05:02.613Z,15.65
2023-03-31T01:07:44.271Z,13.05
2023-03-31T01:10:12.711Z,12.13
2023-03-31T01:12:44.247Z,13.37
2023-03-31T01:15:12.776Z,16.15
2023-03-31T01:17:45.259Z,14.98
2023-03-31T01:20:40.768Z,13.57
2023-03-31T01:23:29.996Z,15.85
2023-03-31T01:26:04.414Z,16.77
2023-03-31T01:29:12.631Z,15.68
2023-03-31T01:32:01.736Z,14.20
2023-03-31T01:34:48.642Z,15.38
2023-03-31T01:37:31.749Z,16.85
2023-03-31T01:40:24.363Z,19.33
2023-03-31T01:42:59.423Z,14.25
2023-03-31T01:45:53.077Z,17.70
2023-03-31T01:48:44.979Z,17.42
2023-03-31T01:51:21.834Z,16.65
2023-03-31T01:54:12.701Z,17.30
2023-03-31T01:57:06.976Z,15.88
2023-03-31T02:00:03.444Z,16.55
2023-03-31T02:02:56.105Z,16.38
2023-03-31T02:05:35.635Z,19.48
2023-03-31T02:08:18.036Z,17.97
2023-03-31T02:10:47.882Z,17.85
2023-03-31T02:13:18.345Z,18.38
2023-03-31T02:15:52.530Z,20.02
2023-03-31T02:18:26.569Z,19.65
2023-03-31T02:20:57.792Z,21.70
2023-03-31T02:23:32.928Z,18.95
2023-03-31T02:26:13.022Z,19.75
2023-03-31T02:28:41.568Z,20.10
2023-03-31T02:31:34.963Z,21.30
2023-03-31T02:34:03.912Z,23.10
2023-03-31T02:36:34.668Z,17.70
2023-03-31T02:39:18.029Z,18.40
2023-03-31T02:41:47.078Z,20.15
2023-03-31T02:44:17.325Z,19.45
2023-03-31T02:46:46.601Z,17.27
2023-03-31T02:49:16.555Z,18.13
2023-03-31T02:52:12.741Z,19.00
2023-03-31T02:54:53.590Z,26.17
2023-03-31T02:57:50.969Z,25.10
2023-03-31T03:00:51.391Z,18.13
2023-03-31T03:03:50.010Z,17.75
2023-03-31T03:06:30.561Z,21.77
2023-03-31T03:09:30.963Z,20.27
2023-03-31T03:12:17.159Z,22.80
2023-03-31T03:14:56.203Z,20.63
2023-03-31T03:17:47.831Z,17.23
2023-03-31T03:20:20.104Z,24.27
2023-03-31T03:22:48.352Z,18.58
2023-03-31T03:25:21.177Z,22.35
2023-03-31T03:27:49.443Z,21.90
2023-03-31T03:30:17.446Z,27.20
2023-03-31T03:32:46.806Z,24.08
2023-03-31T03:35:14.616Z,27.23
2023-03-31T03:37:42.824Z,24.80
2023-03-31T03:40:11.074Z,21.10
2023-03-31T03:42:39.316Z,24.83
2023-03-31T03:45:08.193Z,22.42
2023-03-31T03:47:36.712Z,23.08
2023-03-31T03:50:06.142Z,22.65
2023-03-31T03:52:34.365Z,18.40
2023-03-31T03:55:06.177Z,20.55
2023-03-31T03:57:34.463Z,26.23
2023-03-31T04:00:02.213Z,23.63
2023-03-31T04:02:40.951Z,25.83
2023-03-31T04:05:09.552Z,22.53
2023-03-31T04:07:40.912Z,29.33
2023-03-31T04:10:09.401Z,22.88
2023-03-31T04:12:38.202Z,23.23
2023-03-31T04:15:07.270Z,14.60
2023-03-31T04:17:37.285Z,18.17
2023-03-31T04:20:10.361Z,20.00
2023-03-31T04:22:42.426Z,21.60
2023-03-31T04:25:16.914Z,29.50
2023-03-31T04:28:00.148Z,33.58
2023-03-31T04:30:34.057Z,26.40
2023-03-31T04:33:07.078Z,25.45
2023-03-31T04:35:54.415Z,25.20
2023-03-31T04:38:27.564Z,24.65
2023-03-31T04:40:57.346Z,23.10
2023-03-31T04:43:25.728Z,26.80
2023-03-31T04:45:54.002Z,23.63
2023-03-31T04:48:23.544Z,24.75
2023-03-31T04:50:51.601Z,20.98
2023-03-31T04:53:20.780Z,22.52
2023-03-31T04:55:50.629Z,22.30
2023-03-31T04:58:19.033Z,24.60
2023-03-31T05:00:47.082Z,22.55
2023-03-31T05:03:16.146Z,24.83
2023-03-31T05:05:44.863Z,25.02
2023-03-31T05:08:13.616Z,29.00
2023-03-31T05:10:42.017Z,28.60
2023-03-31T05:13:11.557Z,17.98
2023-03-31T05:15:40.172Z,22.95
2023-03-31T05:18:11.250Z,20.52
2023-03-31T05:20:39.695Z,20.00
2023-03-31T05:23:08.201Z,24.15
2023-03-31T05:25:36.278Z,24.63
2023-03-31T05:28:06.529Z,25.52
2023-03-31T05:30:34.505Z,30.95
2023-03-31T05:33:02.900Z,27.50
2023-03-31T05:35:31.283Z,24.50
2023-03-31T05:38:02.455Z,36.90
2023-03-31T05:40:30.986Z,34.90
2023-03-31T05:42:59.416Z,31.75
2023-03-31T05:45:27.613Z,29.90
2023-03-31T05:47:55.953Z,31.35
2023-03-31T05:50:24.066Z,23.92
2023-03-31T05:52:52.557Z,28.13
2023-03-31T05:55:20.768Z,24.58
2023-03-31T05:57:49.124Z,6.80
2023-03-31T06:00:18.513Z,6.65
2023-03-31T06:02:47.536Z,6.63
2023-03-31T06:05:16.224Z,5.53
2023-03-31T06:07:44.883Z,7.32
2023-03-31T06:10:13.076Z,6.70
2023-03-31T06:12:41.604Z,5.30
2023-03-31T06:15:10.071Z,3.78
2023-03-31T06:17:39.234Z,5.53
2023-03-31T06:20:24.099Z,6.13
2023-03-31T06:22:55.538Z,15.87
2023-03-31T06:25:23.728Z,24.48
2023-03-31T06:27:52.068Z,10.68
2023-03-31T06:30:20.010Z,9.38
2023-03-31T06:32:48.473Z,9.18
2023-03-31T06:35:16.408Z,14.07
2023-03-31T06:37:45.463Z,8.15
2023-03-31T06:40:13.765Z,5.07
2023-03-31T06:42:42.503Z,5.55
2023-03-31T06:45:10.965Z,6.07
2023-03-31T06:47:41.878Z,6.13
2023-03-31T06:50:11.237Z,4.95
2023-03-31T06:52:41.871Z,6.35
2023-03-31T06:55:10.913Z,12.68
2023-03-31T06:57:39.848Z,8.65
2023-03-31T07:00:09.374Z,6.90
2023-03-31T07:02:38.452Z,7.50
2023-03-31T07:05:07.336Z,7.68
2023-03-31T07:07:35.816Z,5.80
2023-03-31T07:10:04.319Z,6.55
2023-03-31T07:12:34.580Z,7.43
2023-03-31T07:15:50.931Z,6.93
2023-03-31T07:18:35.071Z,9.55
2023-03-31T07:21:10.385Z,7.97
2023-03-31T07:23:40.394Z,7.50
2023-03-31T07:26:09.052Z,6.70
2023-03-31T07:28:42.201Z,7.47
2023-03-31T07:31:16.983Z,7.57
2023-03-31T07:33:45.682Z,5.75
2023-03-31T07:36:14.756Z,4.10
2023-03-31T07:38:46.236Z,5.47
2023-03-31T07:41:17.760Z,6.05
2023-03-31T07:43:48.951Z,4.80
2023-03-31T07:46:19.996Z,6.70
2023-03-31T07:48:54.065Z,6.85
2023-03-31T07:51:30.367Z,4.93
2023-03-31T07:53:59.619Z,5.10
2023-03-31T07:56:27.830Z,6.43
2023-03-31T07:58:57.793Z,7.10
2023-03-31T08:01:30.780Z,5.53
2023-03-31T08:04:04.910Z,5.00
2023-03-31T08:06:33.388Z,5.45
2023-03-31T08:09:20.154Z,4.43
2023-03-31T08:11:54.484Z,4.78
2023-03-31T08:14:38.046Z,4.47
2023-03-31T08:17:18.817Z,3.77
2023-03-31T08:20:13.698Z,4.60
2023-03-31T08:25:34.016Z,5.35
2023-03-31T08:28:03.402Z,5.72
2023-03-31T08:30:55.520Z,5.27
2023-03-31T08:33:29.488Z,5.40
2023-03-31T08:36:11.132Z,5.00
2023-03-31T08:42:11.754Z,7.18
2023-03-31T08:45:07.802Z,6.03
2023-03-31T08:47:43.972Z,5.30
2023-03-31T08:50:29.384Z,6.43
2023-03-31T08:56:40.745Z,5.40
2023-03-31T08:59:40.454Z,5.37
2023-03-31T09:06:24.530Z,7.68
2023-03-31T09:09:11.933Z,5.45
2023-03-31T09:15:07.474Z,4.57
2023-03-31T09:17:58.955Z,5.28
2023-03-31T09:20:57.280Z,5.30
2023-03-31T09:23:50.363Z,8.00
2023-03-31T09:26:30.328Z,8.50
2023-03-31T09:29:01.668Z,7.77
2023-03-31T09:31:30.420Z,5.90
2023-03-31T09:34:15.676Z,5.32
2023-03-31T09:36:46.280Z,6.90
2023-03-31T09:39:15.946Z,4.75
2023-03-31T09:41:50.064Z,5.07
2023-03-31T09:44:21.624Z,5.47
2023-03-31T09:46:51.030Z,5.00
2023-03-31T09:49:22.917Z,4.38
2023-03-31T09:52:21.378Z,7.05
2023-03-31T09:54:59.223Z,4.87
2023-03-31T09:57:33.553Z,6.75
2023-03-31T10:00:15.762Z,4.95
2023-03-31T10:02:51.505Z,4.90
2023-03-31T10:05:23.447Z,5.28
2023-03-31T10:11:13.739Z,6.68
2023-03-31T10:14:03.084Z,6.57
2023-03-31T10:16:35.312Z,6.75
2023-03-31T10:19:34.095Z,5.38
2023-03-31T10:22:07.508Z,5.60
2023-03-31T10:24:45.352Z,6.10
2023-03-31T10:27:32.016Z,7.30
2023-03-31T10:30:02.834Z,5.65
2023-03-31T10:32:34.354Z,5.40
2023-03-31T10:35:16.016Z,4.87
2023-03-31T10:37:44.871Z,4.47
2023-03-31T10:40:44.332Z,5.40
2023-03-31T10:43:28.102Z,5.35
2023-03-31T10:46:00.399Z,7.38
2023-03-31T10:48:52.248Z,5.07
2023-03-31T10:51:28.449Z,4.13
2023-03-31T10:54:03.929Z,5.80
2023-03-31T10:56:35.881Z,4.63
2023-03-31T10:59:30.365Z,7.38
2023-03-31T11:02:07.972Z,7.53
2023-03-31T11:05:14.503Z,3.50
2023-03-31T11:08:02.897Z,6.05
2023-03-31T11:10:53.177Z,7.05
2023-03-31T11:13:24.619Z,6.93
2023-03-31T11:16:23.916Z,4.70
2023-03-31T11:19:02.173Z,4.72
2023-03-31T11:21:41.783Z,3.10
2023-03-31T11:24:34.129Z,3.00
2023-03-31T11:27:29.834Z,5.15
2023-03-31T11:30:10.997Z,3.73
2023-03-31T11:33:06.998Z,4.25
2023-03-31T11:36:12.852Z,3.45
2023-03-31T11:38:54.265Z,3.53
2023-03-31T11:41:38.941Z,3.83
2023-03-31T11:44:12.759Z,3.20
2023-03-31T11:46:49.360Z,6.28
2023-03-31T11:49:26.420Z,3.83
2023-03-31T11:52:06.851Z,3.63
2023-03-31T11:54:41.973Z,3.20
2023-03-31T11:57:36.809Z,3.43
2023-03-31T12:00:18.161Z,4.70
2023-03-31T12:02:55.269Z,5.03
2023-03-31T12:05:27.087Z,3.35
2023-03-31T12:08:04.394Z,31.67
2023-03-31T12:10:43.814Z,5.13
2023-03-31T12:13:59.684Z,4.65
2023-03-31T12:16:41.638Z,9.25
2023-03-31T12:19:30.804Z,5.18
2023-03-31T12:22:13.061Z,3.22
2023-03-31T12:24:41.204Z,2.90
2023-03-31T12:27:24.589Z,3.60
2023-03-31T12:29:56.398Z,2.72
2023-03-31T12:32:30.224Z,5.53
2023-03-31T12:35:26.112Z,5.88
2023-03-31T12:37:54.520Z,3.30
2023-03-31T12:40:47.924Z,3.38
2023-03-31T12:43:37.813Z,3.33
2023-03-31T12:46:11.687Z,3.03
2023-03-31T12:49:10.155Z,4.00
2023-03-31T12:51:58.596Z,4.73
2023-03-31T12:54:52.803Z,3.03
2023-03-31T12:57:23.993Z,3.90
2023-03-31T13:00:17.984Z,2.85
2023-03-31T13:02:48.157Z,4.03
2023-03-31T13:05:43.313Z,3.33
2023-03-31T13:08:12.124Z,8.18
2023-03-31T13:11:02.887Z,5.68
2023-03-31T13:16:48.466Z,7.90
2023-03-31T13:19:33.137Z,6.20
2023-03-31T13:22:04.413Z,7.35
2023-03-31T13:24:33.844Z,7.97
2023-03-31T13:27:38.602Z,8.32
2023-03-31T13:30:36.708Z,8.90
2023-03-31T13:33:14.380Z,9.43
2023-03-31T13:35:48.524Z,12.10
2023-03-31T13:38:39.167Z,14.32
2023-03-31T13:41:14.574Z,14.57
2023-03-31T13:44:01.896Z,10.82
2023-03-31T13:46:52.137Z,12.10
2023-03-31T13:49:23.341Z,12.13
2023-03-31T13:51:58.573Z,12.10
2023-03-31T13:54:54.633Z,10.10
2023-03-31T13:57:41.056Z,17.05
2023-03-31T14:00:22.217Z,27.67
2023-03-31T14:03:22.272Z,19.45
2023-03-31T14:06:37.610Z,20.90
2023-03-31T14:09:16.609Z,13.55
2023-03-31T14:11:45.448Z,16.58
2023-03-31T14:14:19.309Z,33.33
2023-03-31T14:16:59.178Z,29.88
2023-03-31T14:20:08.562Z,18.10
2023-03-31T14:23:19.419Z,27.80
2023-03-31T14:26:18.557Z,12.98
2023-03-31T14:28:58.724Z,13.47
2023-03-31T14:31:35.463Z,18.00
2023-03-31T14:34:19.791Z,15.05
2023-03-31T14:37:06.623Z,16.13
2023-03-31T14:39:42.129Z,14.00
2023-03-31T14:42:22.455Z,15.57
2023-03-31T14:45:02.788Z,23.65
2023-03-31T14:47:31.591Z,15.35
2023-03-31T14:50:02.627Z,15.65
2023-03-31T14:52:34.063Z,14.38
2023-03-31T14:55:02.786Z,11.73
2023-03-31T14:57:38.716Z,13.63
2023-03-31T15:00:10.261Z,15.02
2023-03-31T15:02:43.728Z,12.05
2023-03-31T15:05:33.094Z,16.63
2023-03-31T15:08:06.051Z,14.93
2023-03-31T15:10:46.590Z,13.93
2023-03-31T15:13:40.946Z,12.95
2023-03-31T15:16:47.325Z,13.77
2023-03-31T15:19:28.135Z,16.35
2023-03-31T15:22:02.296Z,10.60
2023-03-31T15:24:31.415Z,12.57
2023-03-31T15:27:03.143Z,11.70
2023-03-31T15:29:43.826Z,31.58
2023-03-31T15:32:41.616Z,16.90
2023-03-31T15:35:33.777Z,15.03
2023-03-31T15:38:05.520Z,12.57
2023-03-31T15:40:55.906Z,17.02
2023-03-31T15:43:51.253Z,12.52
2023-03-31T15:46:41.215Z,13.30
2023-03-31T15:49:24.219Z,12.77
2023-03-31T15:51:53.738Z,17.70
2023-03-31T15:54:40.216Z,17.65
2023-03-31T15:57:10.180Z,14.60
2023-03-31T15:59:55.896Z,11.68
2023-03-31T16:02:28.449Z,25.27
2023-03-31T16:04:59.940Z,17.05
2023-03-31T16:07:32.159Z,13.63
2023-03-31T16:10:22.709Z,16.15
2023-03-31T16:17:39.612Z,13.87
2023-03-31T16:21:48.068Z,14.95
2023-03-31T16:24:36.455Z,16.80
2023-03-31T16:27:07.263Z,24.30
2023-03-31T16:29:37.894Z,18.27
2023-03-31T16:32:26.773Z,17.93
2023-03-31T16:35:04.573Z,17.58
2023-03-31T16:37:32.675Z,22.05
2023-03-31T16:40:01.091Z,20.85
2023-03-31T16:42:29.203Z,26.85
2023-03-31T16:45:13.165Z,20.23
2023-03-31T16:47:45.272Z,18.15
2023-03-31T16:50:15.843Z,23.13
2023-03-31T16:55:47.675Z,24.88
2023-03-31T16:58:17.049Z,25.37
2023-03-31T17:00:46.077Z,30.73
2023-03-31T17:03:17.031Z,35.42
2023-03-31T17:05:48.051Z,27.67
2023-03-31T17:08:16.642Z,32.13
2023-03-31T17:10:56.712Z,34.33
2023-03-31T17:13:24.958Z,26.90
2023-03-31T17:16:01.476Z,29.60
2023-03-31T17:18:42.212Z,25.27
2023-03-31T17:21:14.106Z,26.55
2023-03-31T17:23:43.184Z,23.30
2023-03-31T17:26:15.860Z,20.88
2023-03-31T17:28:44.844Z,34.38
2023-03-31T17:31:19.731Z,30.58
2023-03-31T17:33:48.976Z,31.35
2023-03-31T17:36:17.267Z,32.30
2023-03-31T17:38:45.734Z,34.67
2023-03-31T17:41:42.380Z,35.00
2023-03-31T17:44:12.932Z,29.67
2023-03-31T17:46:41.150Z,31.25
2023-03-31T17:49:09.541Z,34.00
2023-03-31T17:51:59.601Z,30.92
2023-03-31T17:54:28.140Z,30.63
2023-03-31T17:56:56.647Z,31.55
2023-03-31T17:59:25.302Z,30.52
2023-03-31T18:01:53.636Z,29.07
2023-03-31T18:04:22.781Z,34.47
2023-03-31T18:06:50.837Z,35.83
2023-03-31T18:09:19.468Z,32.30
2023-03-31T18:11:47.772Z,32.67
2023-03-31T18:14:16.313Z,31.33
2023-03-31T18:16:44.274Z,32.38
2023-03-31T18:19:13.125Z,32.92
2023-03-31T18:21:41.046Z,31.27
2023-03-31T18:24:09.613Z,35.58
2023-03-31T18:26:37.609Z,41.80
2023-03-31T18:29:06.305Z,34.30
2023-03-31T18:31:34.359Z,36.35
2023-03-31T18:34:02.809Z,36.03
2023-03-31T18:36:32.134Z,35.05
2023-03-31T18:39:01.173Z,45.17
2023-03-31T18:41:29.105Z,65.32
2023-03-31T18:43:57.521Z,63.45
2023-03-31T18:46:25.668Z,45.53
2023-03-31T18:48:54.076Z,37.53
2023-03-31T18:51:22.284Z,40.00
2023-03-31T18:53:51.074Z,37.88
2023-03-31T18:56:19.131Z,34.05
2023-03-31T18:58:48.014Z,41.30
2023-03-31T19:01:16.219Z,40.17
2023-03-31T19:03:45.212Z,40.33
2023-03-31T19:06:14.632Z,36.97
2023-03-31T19:08:43.307Z,30.50
2023-03-31T19:11:14.177Z,32.58
2023-03-31T19:13:43.914Z,36.53
2023-03-31T19:16:13.708Z,58.50
2023-03-31T19:18:44.596Z,47.40
2023-03-31T19:21:13.017Z,55.00
2023-03-31T19:23:41.440Z,51.53
2023-03-31T19:26:15.057Z,44.28
2023-03-31T19:28:43.647Z,43.40
2023-03-31T19:31:12.287Z,43.55
2023-03-31T19:33:41.064Z,44.75
2023-03-31T19:36:09.234Z,34.88
2023-03-31T19:38:38.721Z,31.00
2023-03-31T19:41:07.304Z,30.07
2023-03-31T19:43:36.094Z,29.08
2023-03-31T19:46:04.124Z,28.63
2023-03-31T19:48:34.392Z,32.85
2023-03-31T19:51:07.766Z,38.03
2023-03-31T19:53:38.518Z,40.77
2023-03-31T19:56:16.262Z,52.53
2023-03-31T19:58:45.348Z,53.55
2023-03-31T20:01:29.763Z,41.50
2023-03-31T20:03:58.573Z,33.20
2023-03-31T20:06:30.550Z,35.70
2023-03-31T20:09:01.076Z,37.97
2023-03-31T20:11:31.313Z,36.47
2023-03-31T20:14:01.854Z,35.33
2023-03-31T20:16:31.441Z,30.55
2023-03-31T20:19:05.762Z,27.90
2023-03-31T20:21:36.232Z,27.17
2023-03-31T20:24:05.442Z,31.85
2023-03-31T20:26:34.793Z,30.15
2023-03-31T20:29:04.320Z,25.52
2023-03-31T20:31:37.282Z,27.60
2023-03-31T20:34:13.092Z,28.10
2023-03-31T20:36:43.608Z,24.92
2023-03-31T20:39:14.100Z,25.17
2023-03-31T20:41:42.758Z,33.95
2023-03-31T20:44:15.206Z,25.17
2023-03-31T20:46:44.920Z,31.77
2023-03-31T20:49:13.651Z,31.95
2023-03-31T20:51:43.007Z,25.85
2023-03-31T20:54:11.342Z,26.50
2023-03-31T20:56:41.792Z,27.20
2023-03-31T20:59:15.476Z,33.67
2023-03-31T21:01:45.601Z,27.40
2023-03-31T21:04:14.386Z,24.45
2023-03-31T21:06:46.598Z,34.92
2023-03-31T21:09:16.723Z,38.00
2023-03-31T21:11:45.239Z,30.88
2023-03-31T21:14:15.491Z,30.02
2023-03-31T21:16:43.823Z,44.72
2023-03-31T21:19:12.002Z,42.28
2023-03-31T21:21:41.825Z,32.53
2023-03-31T21:24:12.843Z,32.25
2023-03-31T21:26:41.177Z,34.15
2023-03-31T21:29:09.556Z,30.83
2023-03-31T21:31:37.620Z,26.50
2023-03-31T21:34:05.960Z,31.80
2023-03-31T21:36:34.304Z,30.98
2023-03-31T21:39:02.431Z,34.65
2023-03-31T21:41:31.536Z,34.60
2023-03-31T21:44:02.282Z,33.00
2023-03-31T21:46:33.483Z,31.20
2023-03-31T21:49:03.236Z,36.15
2023-03-31T21:51:31.392Z,33.90
2023-03-31T21:53:59.621Z,34.35
2023-03-31T21:56:32.112Z,35.35
2023-03-31T21:59:02.879Z,35.30
2023-03-31T22:01:32.833Z,39.55
2023-03-31T22:04:01.117Z,40.38
2023-03-31T22:06:29.065Z,33.72
2023-03-31T22:08:57.531Z,31.95
2023-03-31T22:11:25.312Z,40.60
2023-03-31T22:13:53.986Z,38.13
2023-03-31T22:16:23.180Z,32.90
2023-03-31T22:18:53.076Z,33.55
2023-03-31T22:21:24.149Z,34.28
2023-03-31T22:23:58.144Z,34.17
2023-03-31T22:26:27.516Z,34.83
2023-03-31T22:28:56.400Z,29.17
2023-03-31T22:31:26.839Z,35.83
2023-03-31T22:33:55.347Z,38.78
2023-03-31T22:36:23.350Z,38.63
2023-03-31T22:38:51.711Z,36.58
2023-03-31T22:41:19.459Z,34.38
2023-03-31T22:43:47.709Z,35.03
2023-03-31T22:46:16.355Z,33.00
2023-03-31T22:48:49.135Z,37.30
2023-03-31T22:51:17.742Z,39.75
2023-03-31T22:53:53.835Z,36.30
2023-03-31T22:56:23.500Z,38.45
2023-03-31T22:58:52.899Z,38.90
2023-03-31T23:01:21.905Z,42.53
2023-03-31T23:03:50.853Z,45.60
2023-03-31T23:06:19.244Z,50.95
2023-03-31T23:08:49.345Z,52.55
2023-03-31T23:11:19.716Z,44.25
2023-03-31T23:13:48.218Z,38.57
2023-03-31T23:16:21.539Z,40.83
2023-03-31T23:18:52.163Z,36.35
2023-03-31T23:21:23.942Z,37.95
2023-03-31T23:23:56.889Z,40.58
2023-03-31T23:26:26.824Z,38.23
2023-03-31T23:28:56.133Z,39.40
2023-03-31T23:31:27.368Z,46.72
2023-03-31T23:33:55.541Z,47.28
2023-03-31T23:36:24.376Z,55.58
2023-03-31T23:38:54.787Z,38.87
2023-03-31T23:41:24.382Z,39.17
2023-03-31T23:43:53.171Z,30.25
2023-03-31T23:46:22.014Z,33.13
2023-03-31T23:48:50.612Z,29.00
2023-03-31T23:51:24.145Z,31.33
2023-03-31T23:53:52.688Z,36.88
2023-03-31T23:56:20.922Z,35.17
2023-03-31T23:58:49.102Z,35.47
